Ocean King — CZ2591 — position and weather

sailwx.info

Track history (hours):
 
Tides and Currents Weather Stations Pressure Air Temp Water Temp Dewpoint Dewpoint Depression Visibility Wind Speed Wind Dir Waves Ship Positions

Ocean King

Last reported at 2015-Aug-29 04:33 UTC. Time now 2015-Aug-31 08:52 UTC.
Position N 48°57' W 125°33'.

Length 29 m; draft 4 m.

Type: Fishing. MMSI: 316003514.

Date/timePositionNaut miles runAvg speedWind from/ knotsBaromVisibWave heightAir tempDewpointWater temp
2015-Aug-29 04:33N 48°57' W 125°33'0 0.0
2015-Aug-29 03:33N 48°57' W 125°33'0 0.0
2015-Aug-29 02:34N 48°57' W 125°33'0 0.1
2015-Aug-29 01:33N 48°57' W 125°33'0 0.0
2015-Aug-29 00:33N 48°57' W 125°33'0 0.0
2015-Aug-28 23:33N 48°57' W 125°33'0 0.0
2015-Aug-28 22:33N 48°57' W 125°33'0 0.0
2015-Aug-28 21:33N 48°57' W 125°33'0 0.0
2015-Aug-28 20:33N 48°57' W 125°33'0 0.0
2015-Aug-28 19:33N 48°57' W 125°33'0 0.0
2015-Aug-28 18:33N 48°57' W 125°33'0 0.0
2015-Aug-28 17:33N 48°57' W 125°33'0 0.0
2015-Aug-28 16:33N 48°57' W 125°33'0 0.0
2015-Aug-28 15:33N 48°57' W 125°33'0 0.0
2015-Aug-28 14:33N 48°57' W 125°33'0 0.0
2015-Aug-28 13:33N 48°57' W 125°33'1 1.2
2015-Aug-28 12:34N 48°56' W 125°32'5 5.0
2015-Aug-28 11:33N 48°56' W 125°39'7 7.2
2015-Aug-28 10:33N 48°59' W 125°49'7 7.4
2015-Aug-28 09:33N 49°01' W 125°60'8 7.6
2015-Aug-28 08:33N 49°04' W 126°11'8 7.6
2015-Aug-28 07:32N 49°07' W 126°22'15 0.3
2015-Aug-26 09:07N 49°18' W 126°39'6 9.5
2015-Aug-26 08:32N 49°15' W 126°32'9 9.4
2015-Aug-26 07:33N 49°10' W 126°19'9 9.2
2015-Aug-26 06:33N 49°06' W 126°07'9 9.0
2015-Aug-26 05:33N 49°01' W 125°55'9 9.2
2015-Aug-26 04:33N 48°57' W 125°43'8 7.8
2015-Aug-26 03:34N 48°55' W 125°31'2 2.3
2015-Aug-26 02:33N 48°57' W 125°33'0 0.0
2015-Aug-26 01:33N 48°57' W 125°33'1 0.5
2015-Aug-26 00:33N 48°57' W 125°33'0 0.1
2015-Aug-25 23:33N 48°57' W 125°33'0 0.0
2015-Aug-25 22:33N 48°57' W 125°33'0 0.0
2015-Aug-25 21:34N 48°57' W 125°33'0 0.0
2015-Aug-25 20:33N 48°57' W 125°33'0 0.0
2015-Aug-25 19:33N 48°57' W 125°33'0 0.0
2015-Aug-25 18:33N 48°57' W 125°33'2 2.4
2015-Aug-25 17:34N 48°54' W 125°32'8 8.0
2015-Aug-25 16:33N 48°57' W 125°43'8 7.8
2015-Aug-25 15:33N 49°01' W 125°54'7 7.1
2015-Aug-25 14:33N 49°04' W 126°03'7 6.9
2015-Aug-25 13:33N 49°07' W 126°12'7 7.0
2015-Aug-25 12:32N 49°11' W 126°22'8 7.3
2015-Aug-25 11:22N 49°15' W 126°34'2 0.1
2015-Aug-24 07:33N 49°16' W 126°35'8 8.0
2015-Aug-24 06:33N 49°12' W 126°25'8 7.9
2015-Aug-24 05:33N 49°08' W 126°15'8 7.8
2015-Aug-24 04:33N 49°04' W 126°05'8 7.6
2015-Aug-24 03:33N 48°60' W 125°55'8 7.8
2015-Aug-24 02:33N 48°56' W 125°44'8 7.9
2015-Aug-24 01:33N 48°54' W 125°32'2 2.2
2015-Aug-24 00:33N 48°56' W 125°32'1 0.6
2015-Aug-23 23:33N 48°57' W 125°33'0 0.0
2015-Aug-23 22:33N 48°57' W 125°33'0 0.0
2015-Aug-23 21:33N 48°57' W 125°33'0 0.0
2015-Aug-23 20:33N 48°57' W 125°33'0 0.0
2015-Aug-23 19:33N 48°57' W 125°33'0 0.0
2015-Aug-23 18:33N 48°57' W 125°33'0 0.0
2015-Aug-23 17:33N 48°57' W 125°33'3 3.2
2015-Aug-23 16:33N 48°54' W 125°36'9 8.6
2015-Aug-23 15:33N 48°57' W 125°48'8 8.0
2015-Aug-23 14:33N 49°01' W 125°59'8 7.8
2015-Aug-23 13:33N 49°05' W 126°10'8 7.6
2015-Aug-23 12:33N 49°09' W 126°20'8 7.7
2015-Aug-23 11:33N 49°13' W 126°30'16 0.5
2015-Aug-21 23:24N 49°05' W 126°52'6 7.0
2015-Aug-21 22:29N 49°01' W 126°45'5 5.7
2015-Aug-21 21:32N 49°01' W 126°36'6 6.4
2015-Aug-21 20:33N 48°56' W 126°30'7 7.2
2015-Aug-21 19:32N 48°51' W 126°22'7 7.3
2015-Aug-21 18:33N 48°46' W 126°14'2 2.1
2015-Aug-21 17:33N 48°44' W 126°14'1 1.3
2015-Aug-21 16:33N 48°42' W 126°13'7 7.3
2015-Aug-21 15:33N 48°47' W 126°22'4 4.0
2015-Aug-21 14:33N 48°46' W 126°16'8 7.6
2015-Aug-21 13:33N 48°46' W 126°05'8 8.5
2015-Aug-21 12:33N 48°49' W 125°52'9 9.2
2015-Aug-21 11:33N 48°51' W 125°39'7 6.7
2015-Aug-21 10:33N 48°56' W 125°32'1 0.9
2015-Aug-21 09:33N 48°57' W 125°33'0 0.0
2015-Aug-21 08:33N 48°57' W 125°33'0 0.0
2015-Aug-21 07:33N 48°57' W 125°33'0 0.0
2015-Aug-21 06:33N 48°57' W 125°33'0 0.0
2015-Aug-21 05:33N 48°57' W 125°33'0 0.0
2015-Aug-21 04:33N 48°57' W 125°33'0 0.0
2015-Aug-21 03:33N 48°57' W 125°33'0 0.0
2015-Aug-21 02:33N 48°57' W 125°33'0 0.0
2015-Aug-21 01:33N 48°57' W 125°33'0 0.0
2015-Aug-21 00:33N 48°57' W 125°33'0 0.0
2015-Aug-20 23:33N 48°57' W 125°33'0 0.0
2015-Aug-20 22:33N 48°57' W 125°33'0 0.0
2015-Aug-20 21:33N 48°57' W 125°33'0 0.0
2015-Aug-20 20:33N 48°57' W 125°33'0 0.0
2015-Aug-20 19:33N 48°57' W 125°33'0 0.0
2015-Aug-20 18:33N 48°57' W 125°33'0 0.0
2015-Aug-20 17:33N 48°57' W 125°33'0 0.0
2015-Aug-20 16:33N 48°57' W 125°33'0 0.0
2015-Aug-20 15:33N 48°57' W 125°33'0 0.0
2015-Aug-20 14:33N 48°57' W 125°33'0 0.0
2015-Aug-20 13:33N 48°57' W 125°33'0 0.0
2015-Aug-20 12:33N 48°57' W 125°33'0 0.0
2015-Aug-20 11:33N 48°57' W 125°33'0 0.0
2015-Aug-20 10:33N 48°57' W 125°33'0 0.0
2015-Aug-20 09:33N 48°57' W 125°33'0 0.0
2015-Aug-20 08:33N 48°57' W 125°33'0 0.0
2015-Aug-20 07:33N 48°57' W 125°33'0 0.0
2015-Aug-20 06:33N 48°57' W 125°33'0 0.0
2015-Aug-20 05:33N 48°57' W 125°33'0 0.0
2015-Aug-20 04:33N 48°57' W 125°33'0 0.0
2015-Aug-20 03:33N 48°57' W 125°33'0 0.0
2015-Aug-20 02:33N 48°57' W 125°33'0 0.0
2015-Aug-20 01:33N 48°57' W 125°33'0 0.0
2015-Aug-20 00:33N 48°57' W 125°33'0 0.0
2015-Aug-19 23:33N 48°57' W 125°33'0 0.0
2015-Aug-19 22:33N 48°57' W 125°33'0 0.0
2015-Aug-19 21:33N 48°57' W 125°33'0 0.0
2015-Aug-19 20:33N 48°57' W 125°33'0 0.0
2015-Aug-19 19:33N 48°57' W 125°33'0 0.0
2015-Aug-19 18:33N 48°57' W 125°33'0 0.0
2015-Aug-19 17:33N 48°57' W 125°33'0 0.0
2015-Aug-19 16:33N 48°57' W 125°33'0 0.0
2015-Aug-19 15:33N 48°57' W 125°33'0 0.0
2015-Aug-19 14:33N 48°57' W 125°33'0 0.0
2015-Aug-19 13:33N 48°57' W 125°33'0 0.0
2015-Aug-19 12:33N 48°57' W 125°33'0 0.0
2015-Aug-19 11:33N 48°57' W 125°33'0 0.0
2015-Aug-19 10:33N 48°57' W 125°33'0 0.0
2015-Aug-19 09:33N 48°57' W 125°33'0 0.0
2015-Aug-19 08:33N 48°57' W 125°33'0 0.0
2015-Aug-19 07:33N 48°57' W 125°33'0 0.0
2015-Aug-19 06:33N 48°57' W 125°33'0 0.0
2015-Aug-19 05:33N 48°57' W 125°33'0 0.0
2015-Aug-19 04:33N 48°57' W 125°33'  
Track history (hours):
 
Tides and Currents Weather Stations Pressure Air Temp Water Temp Dewpoint Dewpoint Depression Visibility Wind Speed Wind Dir Waves Ship Positions

Ocean King

Last reported at 2015-Aug-29 04:33 UTC. Time now 2015-Aug-31 08:52 UTC.
Position N 48°57' W 125°33'.

Length 29 m; draft 4 m.

Type: Fishing. MMSI: 316003514.

Date/timePositionNaut miles runAvg speedWind from/ knotsBaromVisibWave heightAir tempDewpointWater temp
2015-Aug-29 04:33N 48°57' W 125°33'0 0.0
2015-Aug-29 03:33N 48°57' W 125°33'0 0.0
2015-Aug-29 02:34N 48°57' W 125°33'0 0.1
2015-Aug-29 01:33N 48°57' W 125°33'0 0.0
2015-Aug-29 00:33N 48°57' W 125°33'0 0.0
2015-Aug-28 23:33N 48°57' W 125°33'0 0.0
2015-Aug-28 22:33N 48°57' W 125°33'0 0.0
2015-Aug-28 21:33N 48°57' W 125°33'0 0.0
2015-Aug-28 20:33N 48°57' W 125°33'0 0.0
2015-Aug-28 19:33N 48°57' W 125°33'0 0.0
2015-Aug-28 18:33N 48°57' W 125°33'0 0.0
2015-Aug-28 17:33N 48°57' W 125°33'0 0.0
2015-Aug-28 16:33N 48°57' W 125°33'0 0.0
2015-Aug-28 15:33N 48°57' W 125°33'0 0.0
2015-Aug-28 14:33N 48°57' W 125°33'0 0.0
2015-Aug-28 13:33N 48°57' W 125°33'1 1.2
2015-Aug-28 12:34N 48°56' W 125°32'5 5.0
2015-Aug-28 11:33N 48°56' W 125°39'7 7.2
2015-Aug-28 10:33N 48°59' W 125°49'7 7.4
2015-Aug-28 09:33N 49°01' W 125°60'8 7.6
2015-Aug-28 08:33N 49°04' W 126°11'8 7.6
2015-Aug-28 07:32N 49°07' W 126°22'15 0.3
2015-Aug-26 09:07N 49°18' W 126°39'6 9.5
2015-Aug-26 08:32N 49°15' W 126°32'9 9.4
2015-Aug-26 07:33N 49°10' W 126°19'9 9.2
2015-Aug-26 06:33N 49°06' W 126°07'9 9.0
2015-Aug-26 05:33N 49°01' W 125°55'9 9.2
2015-Aug-26 04:33N 48°57' W 125°43'8 7.8
2015-Aug-26 03:34N 48°55' W 125°31'2 2.3
2015-Aug-26 02:33N 48°57' W 125°33'0 0.0
2015-Aug-26 01:33N 48°57' W 125°33'1 0.5
2015-Aug-26 00:33N 48°57' W 125°33'0 0.1
2015-Aug-25 23:33N 48°57' W 125°33'0 0.0
2015-Aug-25 22:33N 48°57' W 125°33'0 0.0
2015-Aug-25 21:34N 48°57' W 125°33'0 0.0
2015-Aug-25 20:33N 48°57' W 125°33'0 0.0
2015-Aug-25 19:33N 48°57' W 125°33'0 0.0
2015-Aug-25 18:33N 48°57' W 125°33'2 2.4
2015-Aug-25 17:34N 48°54' W 125°32'8 8.0
2015-Aug-25 16:33N 48°57' W 125°43'8 7.8
2015-Aug-25 15:33N 49°01' W 125°54'7 7.1
2015-Aug-25 14:33N 49°04' W 126°03'7 6.9
2015-Aug-25 13:33N 49°07' W 126°12'7 7.0
2015-Aug-25 12:32N 49°11' W 126°22'8 7.3
2015-Aug-25 11:22N 49°15' W 126°34'2 0.1
2015-Aug-24 07:33N 49°16' W 126°35'8 8.0
2015-Aug-24 06:33N 49°12' W 126°25'8 7.9
2015-Aug-24 05:33N 49°08' W 126°15'8 7.8
2015-Aug-24 04:33N 49°04' W 126°05'8 7.6
2015-Aug-24 03:33N 48°60' W 125°55'8 7.8
2015-Aug-24 02:33N 48°56' W 125°44'8 7.9
2015-Aug-24 01:33N 48°54' W 125°32'2 2.2
2015-Aug-24 00:33N 48°56' W 125°32'1 0.6
2015-Aug-23 23:33N 48°57' W 125°33'0 0.0
2015-Aug-23 22:33N 48°57' W 125°33'0 0.0
2015-Aug-23 21:33N 48°57' W 125°33'0 0.0
2015-Aug-23 20:33N 48°57' W 125°33'0 0.0
2015-Aug-23 19:33N 48°57' W 125°33'0 0.0
2015-Aug-23 18:33N 48°57' W 125°33'0 0.0
2015-Aug-23 17:33N 48°57' W 125°33'3 3.2
2015-Aug-23 16:33N 48°54' W 125°36'9 8.6
2015-Aug-23 15:33N 48°57' W 125°48'8 8.0
2015-Aug-23 14:33N 49°01' W 125°59'8 7.8
2015-Aug-23 13:33N 49°05' W 126°10'8 7.6
2015-Aug-23 12:33N 49°09' W 126°20'8 7.7
2015-Aug-23 11:33N 49°13' W 126°30'16 0.5
2015-Aug-21 23:24N 49°05' W 126°52'6 7.0
2015-Aug-21 22:29N 49°01' W 126°45'5 5.7
2015-Aug-21 21:32N 49°01' W 126°36'6 6.4
2015-Aug-21 20:33N 48°56' W 126°30'7 7.2
2015-Aug-21 19:32N 48°51' W 126°22'7 7.3
2015-Aug-21 18:33N 48°46' W 126°14'2 2.1
2015-Aug-21 17:33N 48°44' W 126°14'1 1.3
2015-Aug-21 16:33N 48°42' W 126°13'7 7.3
2015-Aug-21 15:33N 48°47' W 126°22'4 4.0
2015-Aug-21 14:33N 48°46' W 126°16'8 7.6
2015-Aug-21 13:33N 48°46' W 126°05'8 8.5
2015-Aug-21 12:33N 48°49' W 125°52'9 9.2
2015-Aug-21 11:33N 48°51' W 125°39'7 6.7
2015-Aug-21 10:33N 48°56' W 125°32'1 0.9
2015-Aug-21 09:33N 48°57' W 125°33'0 0.0
2015-Aug-21 08:33N 48°57' W 125°33'0 0.0
2015-Aug-21 07:33N 48°57' W 125°33'0 0.0
2015-Aug-21 06:33N 48°57' W 125°33'0 0.0
2015-Aug-21 05:33N 48°57' W 125°33'0 0.0
2015-Aug-21 04:33N 48°57' W 125°33'0 0.0
2015-Aug-21 03:33N 48°57' W 125°33'0 0.0
2015-Aug-21 02:33N 48°57' W 125°33'0 0.0
2015-Aug-21 01:33N 48°57' W 125°33'0 0.0
2015-Aug-21 00:33N 48°57' W 125°33'0 0.0
2015-Aug-20 23:33N 48°57' W 125°33'0 0.0
2015-Aug-20 22:33N 48°57' W 125°33'0 0.0
2015-Aug-20 21:33N 48°57' W 125°33'0 0.0
2015-Aug-20 20:33N 48°57' W 125°33'0 0.0
2015-Aug-20 19:33N 48°57' W 125°33'0 0.0
2015-Aug-20 18:33N 48°57' W 125°33'0 0.0
2015-Aug-20 17:33N 48°57' W 125°33'0 0.0
2015-Aug-20 16:33N 48°57' W 125°33'0 0.0
2015-Aug-20 15:33N 48°57' W 125°33'0 0.0
2015-Aug-20 14:33N 48°57' W 125°33'0 0.0
2015-Aug-20 13:33N 48°57' W 125°33'0 0.0
2015-Aug-20 12:33N 48°57' W 125°33'0 0.0
2015-Aug-20 11:33N 48°57' W 125°33'0 0.0
2015-Aug-20 10:33N 48°57' W 125°33'0 0.0
2015-Aug-20 09:33N 48°57' W 125°33'0 0.0
2015-Aug-20 08:33N 48°57' W 125°33'0 0.0
2015-Aug-20 07:33N 48°57' W 125°33'0 0.0
2015-Aug-20 06:33N 48°57' W 125°33'0 0.0
2015-Aug-20 05:33N 48°57' W 125°33'0 0.0
2015-Aug-20 04:33N 48°57' W 125°33'0 0.0
2015-Aug-20 03:33N 48°57' W 125°33'0 0.0
2015-Aug-20 02:33N 48°57' W 125°33'0 0.0
2015-Aug-20 01:33N 48°57' W 125°33'0 0.0
2015-Aug-20 00:33N 48°57' W 125°33'0 0.0
2015-Aug-19 23:33N 48°57' W 125°33'0 0.0
2015-Aug-19 22:33N 48°57' W 125°33'0 0.0
2015-Aug-19 21:33N 48°57' W 125°33'0 0.0
2015-Aug-19 20:33N 48°57' W 125°33'0 0.0
2015-Aug-19 19:33N 48°57' W 125°33'0 0.0
2015-Aug-19 18:33N 48°57' W 125°33'0 0.0
2015-Aug-19 17:33N 48°57' W 125°33'0 0.0
2015-Aug-19 16:33N 48°57' W 125°33'0 0.0
2015-Aug-19 15:33N 48°57' W 125°33'0 0.0
2015-Aug-19 14:33N 48°57' W 125°33'0 0.0
2015-Aug-19 13:33N 48°57' W 125°33'0 0.0
2015-Aug-19 12:33N 48°57' W 125°33'0 0.0
2015-Aug-19 11:33N 48°57' W 125°33'0 0.0
2015-Aug-19 10:33N 48°57' W 125°33'0 0.0
2015-Aug-19 09:33N 48°57' W 125°33'0 0.0
2015-Aug-19 08:33N 48°57' W 125°33'0 0.0
2015-Aug-19 07:33N 48°57' W 125°33'0 0.0
2015-Aug-19 06:33N 48°57' W 125°33'0 0.0
2015-Aug-19 05:33N 48°57' W 125°33'0 0.0
2015-Aug-19 04:33N 48°57' W 125°33'  

Dump ship's entire track history